Dixie Raider — WDC2675 — position and weather

sailwx.info

Track history (hours):
 
Tides and Currents Weather Stations Pressure Air Temp Water Temp Dewpoint Dewpoint Depression Visibility Wind Speed Wind Dir Waves Ship Positions

Dixie Raider

Owner: Kirby Inland Marine LP, Houston, TX. More information available from US FCC via Universal Licensing System and Coast Guard Vessel Documentation Center.

Last reported at 2017-Nov-24 05:30 UTC. Time now 2017-Nov-24 05:48 UTC.
Position N 29°45' W 095°17'.

Length 99 m; draft 2.8 m.

Type: . MMSI: 366996280.

Date/timePositionNaut miles runAvg speedWind from/ knotsBaromVisibWave heightAir tempDewpointWater temp
2017-Nov-24 05:30N 29°45' W 095°17'0 0.0
2017-Nov-24 04:57N 29°45' W 095°17'0 0.0
2017-Nov-24 04:27N 29°45' W 095°17'0 0.0
2017-Nov-24 03:54N 29°45' W 095°17'0 0.0
2017-Nov-24 03:27N 29°45' W 095°17'0 0.0
2017-Nov-24 03:00N 29°45' W 095°17'0 0.0
2017-Nov-24 02:30N 29°45' W 095°17'0 0.1
2017-Nov-24 02:00N 29°45' W 095°17'1 1.5
2017-Nov-24 01:29N 29°44' W 095°17'1 0.1
2017-Nov-23 17:04N 29°44' W 095°17'0 0.1
2017-Nov-23 16:59N 29°44' W 095°17'0 0.7
2017-Nov-23 16:30N 29°45' W 095°17'2 3.2
2017-Nov-23 16:00N 29°44' W 095°16'2 3.6
2017-Nov-23 15:30N 29°43' W 095°14'2 3.5
2017-Nov-23 15:00N 29°44' W 095°12'2 4.3
2017-Nov-23 14:27N 29°44' W 095°09'2 4.4
2017-Nov-23 14:00N 29°44' W 095°07'3 3.0
2017-Nov-23 12:57N 29°44' W 095°03'0 1.0
2017-Nov-23 12:28N 29°44' W 095°03'0 0.0
2017-Nov-23 11:56N 29°44' W 095°03'0 0.0
2017-Nov-23 10:28N 29°44' W 095°03'0 0.0
2017-Nov-23 08:19N 29°44' W 095°03'0 0.0
2017-Nov-23 01:38N 29°44' W 095°03'2 5.4
2017-Nov-23 01:18N 29°46' W 095°04'1 3.2
2017-Nov-23 00:52N 29°45' W 095°06'  
2017-Nov-20 00:30N 29°36' W 094°57'2 4.3
2017-Nov-20 00:00N 29°38' W 094°58'2 4.4
2017-Nov-19 23:30N 29°40' W 094°58'2 4.1
2017-Nov-19 23:00N 29°42' W 094°59'3 4.2
2017-Nov-19 22:23N 29°43' W 095°01'2 5.0
2017-Nov-19 22:00N 29°44' W 095°03'0 0.0
2017-Nov-19 03:44N 29°44' W 095°03'0 0.4
2017-Nov-19 03:23N 29°44' W 095°03'0 0.0
2017-Nov-18 08:20N 29°44' W 095°03'4 0.3
2017-Nov-17 16:44N 29°44' W 095°08'2 0.2
2017-Nov-17 07:41N 29°45' W 095°10'1 3.9
2017-Nov-17 07:21N 29°44' W 095°09'1 0.1
2017-Nov-16 23:48N 29°44' W 095°08'3 0.4
2017-Nov-16 16:44N 29°45' W 095°11'1 0.2
2017-Nov-16 13:01N 29°45' W 095°10'1 0.1
2017-Nov-16 03:38N 29°45' W 095°11'1 2.7
2017-Nov-16 03:26N 29°45' W 095°11'4 4.1
2017-Nov-16 02:26N 29°45' W 095°06'1 0.7
2017-Nov-16 01:30N 29°46' W 095°07'1 0.1
2017-Nov-15 12:02N 29°46' W 095°06'1 3.5
2017-Nov-15 11:36N 29°44' W 095°07'2 5.8
2017-Nov-15 11:20N 29°44' W 095°08'3 5.8
2017-Nov-15 10:52N 29°45' W 095°11'2 5.0
2017-Nov-15 10:25N 29°43' W 095°13'0 0.3
2017-Nov-15 09:08N 29°44' W 095°14'0 0.0
2017-Nov-15 09:00N 29°44' W 095°14'2 4.1
2017-Nov-15 08:30N 29°45' W 095°12'6 0.7
2017-Nov-14 23:55N 29°46' W 095°05'5 3.3
2017-Nov-14 22:25N 29°42' W 095°01'2 5.7
2017-Nov-14 22:00N 29°41' W 094°59'3 5.7
2017-Nov-14 21:28N 29°38' W 094°58'3 5.8
2017-Nov-14 20:59N 29°36' W 094°56'3 5.8
2017-Nov-14 20:28N 29°33' W 094°54'3 0.2
2017-Nov-14 05:55N 29°31' W 094°53'2 6.0
2017-Nov-14 05:30N 29°33' W 094°54'  
Track history (hours):
 
Tides and Currents Weather Stations Pressure Air Temp Water Temp Dewpoint Dewpoint Depression Visibility Wind Speed Wind Dir Waves Ship Positions

Dixie Raider

Owner: Kirby Inland Marine LP, Houston, TX. More information available from US FCC via Universal Licensing System and Coast Guard Vessel Documentation Center.

Last reported at 2017-Nov-24 05:30 UTC. Time now 2017-Nov-24 05:48 UTC.
Position N 29°45' W 095°17'.

Length 99 m; draft 2.8 m.

Type: . MMSI: 366996280.

Date/timePositionNaut miles runAvg speedWind from/ knotsBaromVisibWave heightAir tempDewpointWater temp
2017-Nov-24 05:30N 29°45' W 095°17'0 0.0
2017-Nov-24 04:57N 29°45' W 095°17'0 0.0
2017-Nov-24 04:27N 29°45' W 095°17'0 0.0
2017-Nov-24 03:54N 29°45' W 095°17'0 0.0
2017-Nov-24 03:27N 29°45' W 095°17'0 0.0
2017-Nov-24 03:00N 29°45' W 095°17'0 0.0
2017-Nov-24 02:30N 29°45' W 095°17'0 0.1
2017-Nov-24 02:00N 29°45' W 095°17'1 1.5
2017-Nov-24 01:29N 29°44' W 095°17'1 0.1
2017-Nov-23 17:04N 29°44' W 095°17'0 0.1
2017-Nov-23 16:59N 29°44' W 095°17'0 0.7
2017-Nov-23 16:30N 29°45' W 095°17'2 3.2
2017-Nov-23 16:00N 29°44' W 095°16'2 3.6
2017-Nov-23 15:30N 29°43' W 095°14'2 3.5
2017-Nov-23 15:00N 29°44' W 095°12'2 4.3
2017-Nov-23 14:27N 29°44' W 095°09'2 4.4
2017-Nov-23 14:00N 29°44' W 095°07'3 3.0
2017-Nov-23 12:57N 29°44' W 095°03'0 1.0
2017-Nov-23 12:28N 29°44' W 095°03'0 0.0
2017-Nov-23 11:56N 29°44' W 095°03'0 0.0
2017-Nov-23 10:28N 29°44' W 095°03'0 0.0
2017-Nov-23 08:19N 29°44' W 095°03'0 0.0
2017-Nov-23 01:38N 29°44' W 095°03'2 5.4
2017-Nov-23 01:18N 29°46' W 095°04'1 3.2
2017-Nov-23 00:52N 29°45' W 095°06'  
2017-Nov-20 00:30N 29°36' W 094°57'2 4.3
2017-Nov-20 00:00N 29°38' W 094°58'2 4.4
2017-Nov-19 23:30N 29°40' W 094°58'2 4.1
2017-Nov-19 23:00N 29°42' W 094°59'3 4.2
2017-Nov-19 22:23N 29°43' W 095°01'2 5.0
2017-Nov-19 22:00N 29°44' W 095°03'0 0.0
2017-Nov-19 03:44N 29°44' W 095°03'0 0.4
2017-Nov-19 03:23N 29°44' W 095°03'0 0.0
2017-Nov-18 08:20N 29°44' W 095°03'4 0.3
2017-Nov-17 16:44N 29°44' W 095°08'2 0.2
2017-Nov-17 07:41N 29°45' W 095°10'1 3.9
2017-Nov-17 07:21N 29°44' W 095°09'1 0.1
2017-Nov-16 23:48N 29°44' W 095°08'3 0.4
2017-Nov-16 16:44N 29°45' W 095°11'1 0.2
2017-Nov-16 13:01N 29°45' W 095°10'1 0.1
2017-Nov-16 03:38N 29°45' W 095°11'1 2.7
2017-Nov-16 03:26N 29°45' W 095°11'4 4.1
2017-Nov-16 02:26N 29°45' W 095°06'1 0.7
2017-Nov-16 01:30N 29°46' W 095°07'1 0.1
2017-Nov-15 12:02N 29°46' W 095°06'1 3.5
2017-Nov-15 11:36N 29°44' W 095°07'2 5.8
2017-Nov-15 11:20N 29°44' W 095°08'3 5.8
2017-Nov-15 10:52N 29°45' W 095°11'2 5.0
2017-Nov-15 10:25N 29°43' W 095°13'0 0.3
2017-Nov-15 09:08N 29°44' W 095°14'0 0.0
2017-Nov-15 09:00N 29°44' W 095°14'2 4.1
2017-Nov-15 08:30N 29°45' W 095°12'6 0.7
2017-Nov-14 23:55N 29°46' W 095°05'5 3.3
2017-Nov-14 22:25N 29°42' W 095°01'2 5.7
2017-Nov-14 22:00N 29°41' W 094°59'3 5.7
2017-Nov-14 21:28N 29°38' W 094°58'3 5.8
2017-Nov-14 20:59N 29°36' W 094°56'3 5.8
2017-Nov-14 20:28N 29°33' W 094°54'3 0.2
2017-Nov-14 05:55N 29°31' W 094°53'2 6.0
2017-Nov-14 05:30N 29°33' W 094°54'  

Dump ship's entire track history